Time;durP1;ratioP1;P1;durP2;ratioP2;P2;SDS_P1;SDS_P2;PMS_P1;PMS_P2;Temp;Humidity;BMP_temperature;BMP_pressure;BME280_temperature;BME280_humidity;BME280_pressure;Samples;Min_cycle;Max_cycle;Signal;HPM_P1;HPM_P2
2023/05/16 04:12:58;;;;;;;12.05;6.82;;;;;;;11.48;100.00;99766.50;5578714;31;739812;-88
2023/05/16 04:16:06;;;;;;;8.32;6.43;;;;;;;11.47;100.00;99765.66;5581893;31;34145;-90
2023/05/16 04:19:14;;;;;;;6.65;6.05;;;;;;;11.50;100.00;99764.59;5581812;32;34356;-88
2023/05/16 04:22:23;;;;;;;6.37;5.65;;;;;;;11.55;100.00;99759.84;5582177;32;33791;-88
2023/05/16 04:25:32;;;;;;;5.80;5.30;;;;;;;11.63;100.00;99778.81;5582954;31;34335;-87
2023/05/16 04:28:45;;;;;;;5.82;4.90;;;;;;;11.70;100.00;99782.78;5583027;31;34262;-88
2023/05/16 04:31:53;;;;;;;5.20;4.57;;;;;;;11.69;100.00;99786.41;5583543;32;34535;-88
2023/05/16 04:35:01;;;;;;;4.90;4.47;;;;;;;11.71;100.00;99773.88;5582168;32;33853;-88
2023/05/16 04:38:10;;;;;;;5.72;4.40;;;;;;;11.78;100.00;99773.47;5582381;32;33965;-85
2023/05/16 04:41:19;;;;;;;5.25;3.70;;;;;;;11.84;100.00;99781.03;5582291;32;33870;-86
2023/05/16 04:44:28;;;;;;;4.60;3.67;;;;;;;11.91;100.00;99787.66;5583106;32;33797;-85
2023/05/16 04:47:38;;;;;;;4.70;3.85;;;;;;;11.94;100.00;99790.13;5593359;31;33614;-85
2023/05/16 04:50:46;;;;;;;4.12;3.72;;;;;;;11.93;100.00;99787.56;5599632;26;33877;-89
2023/05/16 04:53:53;;;;;;;3.87;3.45;;;;;;;12.00;100.00;99786.22;5584647;31;34009;-89
2023/05/16 04:56:58;;;;;;;7.65;3.80;;;;;;;12.11;100.00;99788.19;5584081;31;33600;-86
2023/05/16 05:00:06;;;;;;;4.32;3.85;;;;;;;12.17;100.00;99790.44;5589899;32;34086;-85
2023/05/16 05:03:11;;;;;;;3.90;3.60;;;;;;;12.29;100.00;99795.91;5581902;32;34557;-85
2023/05/16 05:06:19;;;;;;;4.72;3.37;;;;;;;12.42;100.00;99804.78;5589726;31;34470;-86
2023/05/16 05:09:26;;;;;;;4.12;3.60;;;;;;;12.56;100.00;99814.50;5582342;32;35239;-86
2023/05/16 05:12:35;;;;;;;;;;;;;;;12.56;100.00;99808.34;5576327;32;35188;-86
2023/05/16 05:15:41;;;;;;;5.40;3.80;;;;;;;12.40;100.00;99799.59;5583628;31;33575;-86
2023/05/16 05:18:47;;;;;;;5.50;3.42;;;;;;;12.36;100.00;99795.41;5579217;32;33663;-85
2023/05/16 05:21:50;;;;;;;3.80;3.47;;;;;;;12.45;100.00;99801.94;5569173;31;33859;-85
2023/05/16 05:24:54;;;;;;;3.85;3.50;;;;;;;12.51;100.00;99812.16;5553527;31;34064;-85
2023/05/16 05:27:58;;;;;;;3.95;3.30;;;;;;;12.43;100.00;99822.47;5575756;31;33563;-85
2023/05/16 05:31:04;;;;;;;3.90;3.55;;;;;;;12.52;100.00;99818.31;5563512;31;34284;-86
2023/05/16 05:34:12;;;;;;;4.25;3.40;;;;;;;12.61;100.00;99811.53;5554363;31;34050;-86
2023/05/16 05:37:19;;;;;;;4.10;3.70;;;;;;;12.48;100.00;99803.53;5562469;31;33423;-85
2023/05/16 05:40:27;;;;;;;6.03;3.90;;;;;;;12.41;100.00;99803.06;5576327;31;34064;-86
2023/05/16 05:43:34;;;;;;;3.90;3.60;;;;;;;12.42;100.00;99807.44;5560584;31;34274;-85
2023/05/16 05:46:37;;;;;;;5.28;3.80;;;;;;;12.44;100.00;99816.19;5562632;31;34527;-85
2023/05/16 05:49:44;;;;;;;5.07;3.40;;;;;;;12.43;100.00;99813.62;5576626;31;34417;-85
2023/05/16 05:52:50;;;;;;;7.12;4.90;;;;;;;12.48;100.00;99811.50;5561358;31;34914;-85
2023/05/16 05:55:56;;;;;;;5.35;3.95;;;;;;;12.49;100.00;99799.91;5561269;32;34745;-85
2023/05/16 05:59:01;;;;;;;4.70;4.25;;;;;;;12.56;100.00;99809.19;5557661;32;32442;-86
2023/05/16 06:02:10;;;;;;;5.87;4.00;;;;;;;12.50;100.00;99810.47;5556199;31;34274;-86
2023/05/16 06:05:16;;;;;;;4.37;3.70;;;;;;;12.43;100.00;99814.50;5556230;32;33893;-85
2023/05/16 06:08:24;;;;;;;5.93;4.05;;;;;;;12.45;100.00;99812.56;5551284;32;33600;-87
2023/05/16 06:11:29;;;;;;;5.22;3.60;;;;;;;12.50;100.00;99809.59;5566739;32;34424;-91
2023/05/16 06:14:35;;;;;;;6.57;3.80;;;;;;;12.45;100.00;99799.25;5550685;32;33652;-90
2023/05/16 06:17:40;;;;;;;5.40;3.85;;;;;;;12.36;100.00;99784.78;5553139;32;33808;-86
2023/05/16 06:20:44;;;;;;;4.03;3.72;;;;;;;12.39;100.00;99791.69;5552902;32;34012;-86
2023/05/16 06:23:52;;;;;;;7.75;3.97;;;;;;;12.57;100.00;99794.91;5562001;32;34599;-86
2023/05/16 06:26:57;;;;;;;4.18;3.87;;;;;;;12.55;100.00;99791.50;5554448;32;33588;-86
2023/05/16 06:30:02;;;;;;;4.32;3.83;;;;;;;12.57;100.00;99789.59;5552014;31;33847;-86
2023/05/16 06:33:08;;;;;;;10.20;4.20;;;;;;;12.66;100.00;99786.31;5556619;31;33562;-85
2023/05/16 06:36:12;;;;;;;4.32;3.45;;;;;;;12.54;100.00;99784.50;5546865;32;34156;-86
2023/05/16 06:39:15;;;;;;;5.43;3.80;;;;;;;12.58;100.00;99775.31;5554432;32;33437;-86
2023/05/16 06:42:20;;;;;;;6.55;3.72;;;;;;;12.59;100.00;99773.53;5554049;32;33757;-86
2023/05/16 06:45:24;;;;;;;6.00;3.12;;;;;;;12.62;100.00;99773.34;5559503;32;34448;-86
2023/05/16 06:48:29;;;;;;;3.62;3.30;;;;;;;12.57;100.00;99778.94;5551207;31;33314;-86
2023/05/16 06:51:36;;;;;;;4.78;3.80;;;;;;;12.58;100.00;99785.13;5557375;32;34698;-86
2023/05/16 06:54:40;;;;;;;5.00;3.70;;;;;;;12.57;100.00;99791.41;5555499;32;34214;-86
2023/05/16 06:57:46;;;;;;;4.75;3.15;;;;;;;12.57;100.00;99781.63;5557362;32;33467;-85
2023/05/16 07:00:52;;;;;;;8.13;3.25;;;;;;;12.59;100.00;99778.84;5561135;32;34506;-86
2023/05/16 07:03:56;;;;;;;3.55;3.25;;;;;;;12.52;100.00;99786.38;5563834;31;34770;-85
2023/05/16 07:07:01;;;;;;;3.55;3.25;;;;;;;12.56;100.00;99779.91;5565326;31;33668;-85
2023/05/16 07:10:05;;;;;;;5.80;3.40;;;;;;;12.64;100.00;99788.25;5554487;32;34571;-85
2023/05/16 07:13:10;;;;;;;7.15;3.50;;;;;;;12.75;100.00;99792.81;5555372;32;33975;-85
2023/05/16 07:16:14;;;;;;;5.45;3.70;;;;;;;12.76;100.00;99785.69;5552023;31;33835;-85
2023/05/16 07:19:22;;;;;;;4.20;3.40;;;;;;;12.74;100.00;99785.81;5557746;32;33816;-86
2023/05/16 07:22:26;;;;;;;4.30;3.62;;;;;;;12.79;100.00;99788.16;5554443;32;33283;-86
2023/05/16 07:25:34;;;;;;;4.93;4.05;;;;;;;12.74;100.00;99795.59;5553128;32;33620;-85
2023/05/16 07:28:40;;;;;;;6.85;4.30;;;;;;;12.74;100.00;99798.25;5553558;31;35019;-87
2023/05/16 07:31:44;;;;;;;6.30;4.50;;;;;;;12.77;100.00;99790.06;5559685;32;33773;-87
2023/05/16 07:34:48;;;;;;;6.37;5.18;;;;;;;12.81;100.00;99775.56;5554096;32;34335;-86
2023/05/16 07:37:52;;;;;;;7.90;5.00;;;;;;;12.94;100.00;99781.75;5552980;32;34370;-87
2023/05/16 07:40:55;;;;;;;6.87;4.95;;;;;;;13.07;100.00;99776.44;5555100;32;33931;-87
2023/05/16 07:44:03;;;;;;;9.23;5.53;;;;;;;12.98;100.00;99779.72;5550604;32;34010;-88
2023/05/16 07:47:08;;;;;;;11.20;6.28;;;;;;;12.92;100.00;99783.69;5549840;31;34383;-87
2023/05/16 07:50:12;;;;;;;9.70;5.82;;;;;;;13.05;100.00;99772.19;5548783;32;34503;-87
2023/05/16 07:53:16;;;;;;;11.80;5.85;;;;;;;13.04;100.00;99783.78;5553077;32;34627;-86
2023/05/16 07:56:22;;;;;;;9.55;6.18;;;;;;;12.89;100.00;99783.91;5558269;31;34078;-87
2023/05/16 07:59:25;;;;;;;9.88;6.70;;;;;;;12.74;100.00;99774.31;5557212;31;32091;-86
2023/05/16 08:02:33;;;;;;;11.40;7.15;;;;;;;12.62;100.00;99773.34;5559975;31;33830;-88
2023/05/16 08:05:38;;;;;;;10.00;7.62;;;;;;;12.51;100.00;99766.94;5555511;32;33721;-89
2023/05/16 08:08:43;;;;;;;11.75;8.50;;;;;;;12.41;100.00;99763.19;5552446;32;33833;-86
2023/05/16 08:11:48;;;;;;;10.07;8.00;;;;;;;12.46;100.00;99769.03;5562447;31;34044;-87
2023/05/16 08:14:54;;;;;;;11.55;8.57;;;;;;;12.41;100.00;99771.16;5551823;32;33981;-86
2023/05/16 08:18:00;;;;;;;13.25;8.65;;;;;;;12.42;100.00;99769.38;5576226;31;33456;-87
2023/05/16 08:21:03;;;;;;;8.68;7.12;;;;;;;12.46;100.00;99770.84;5577053;31;33557;-86
2023/05/16 08:24:09;;;;;;;13.85;6.85;;;;;;;12.40;100.00;99772.97;5551698;31;34031;-86
2023/05/16 08:27:14;;;;;;;9.52;6.35;;;;;;;12.48;100.00;99774.28;5563847;32;33548;-86
2023/05/16 08:30:18;;;;;;;10.48;6.62;;;;;;;12.45;100.00;99777.97;5572997;32;34192;-87
2023/05/16 08:33:22;;;;;;;10.05;6.82;;;;;;;12.45;100.00;99777.97;5557747;32;33769;-86
2023/05/16 08:36:30;;;;;;;9.15;6.32;;;;;;;12.48;100.00;99783.09;5566901;31;33321;-86
2023/05/16 08:39:37;;;;;;;7.60;6.12;;;;;;;12.60;100.00;99777.91;5588206;31;34191;-86
2023/05/16 08:42:43;;;;;;;9.75;7.62;;;;;;;12.67;100.00;99768.53;5570804;32;34120;-86
2023/05/16 08:45:48;;;;;;;12.10;7.32;;;;;;;12.72;100.00;99769.06;5578185;32;34681;-86
2023/05/16 08:48:53;;;;;;;10.00;6.85;;;;;;;12.91;100.00;99750.03;5557127;32;34831;-86
2023/05/16 08:51:59;;;;;;;9.07;6.97;;;;;;;12.92;100.00;99746.41;5559668;32;34422;-86
2023/05/16 08:55:04;;;;;;;8.73;6.95;;;;;;;12.96;100.00;99751.53;5554501;32;34375;-85
2023/05/16 08:58:15;;;;;;;9.13;7.15;;;;;;;12.98;100.00;99750.44;5557387;32;34628;-85
2023/05/16 09:01:19;;;;;;;8.40;7.05;;;;;;;13.10;100.00;99754.06;5559763;32;34341;-85
2023/05/16 09:04:24;;;;;;;10.25;7.37;;;;;;;13.11;100.00;99758.44;5556273;32;34231;-85
2023/05/16 09:07:32;;;;;;;8.20;6.65;;;;;;;13.00;100.00;99753.88;5564075;32;33708;-86
2023/05/16 09:10:36;;;;;;;8.90;7.00;;;;;;;12.95;100.00;99750.66;5557928;32;33957;-85
2023/05/16 09:13:41;;;;;;;10.43;7.25;;;;;;;13.04;100.00;99746.50;5558704;32;33752;-87
2023/05/16 09:16:45;;;;;;;11.93;7.97;;;;;;;12.97;100.00;99745.25;5553602;32;33709;-87
2023/05/16 09:19:51;;;;;;;10.65;7.55;;;;;;;13.07;100.00;99741.81;5561766;32;33910;-90
2023/05/16 09:22:57;;;;;;;12.93;7.65;;;;;;;13.03;100.00;99750.13;5554697;31;33971;-91
2023/05/16 09:26:04;;;;;;;12.80;8.70;;;;;;;13.05;100.00;99751.75;5557852;31;33408;-85
2023/05/16 09:29:11;;;;;;;11.15;8.23;;;;;;;13.07;100.00;99748.94;5562821;31;35003;-85
2023/05/16 09:32:16;;;;;;;10.07;7.82;;;;;;;13.11;100.00;99746.91;5567560;31;33857;-85
2023/05/16 09:35:22;;;;;;;10.43;8.65;;;;;;;13.15;100.00;99746.62;5556031;32;34416;-85
2023/05/16 09:38:48;;;;;;;10.40;8.13;;;;;;;13.05;100.00;99751.75;5565840;32;33520;-85
2023/05/16 09:41:52;;;;;;;11.80;9.52;;;;;;;13.01;100.00;99752.03;5560142;32;35065;-85
2023/05/16 09:44:59;;;;;;;16.25;10.45;;;;;;;13.03;100.00;99745.66;5557735;32;33781;-85
2023/05/16 09:48:09;;;;;;;16.87;10.27;;;;;;;13.00;100.00;99737.88;5558896;32;33986;-85
2023/05/16 09:51:20;;;;;;;10.88;9.25;;;;;;;13.04;100.00;99746.50;5553796;32;34508;-86
2023/05/16 09:54:33;;;;;;;12.70;9.50;;;;;;;13.07;100.00;99743.63;5551266;32;33870;-86
2023/05/16 09:57:39;;;;;;;13.18;9.93;;;;;;;13.03;100.00;99739.50;5560050;32;33928;-85
2023/05/16 10:00:42;;;;;;;11.05;9.40;;;;;;;13.03;100.00;99742.16;5555909;32;34524;-86
2023/05/16 10:03:45;;;;;;;14.50;9.85;;;;;;;13.05;100.00;99742.87;5550592;32;34105;-86
2023/05/16 10:06:53;;;;;;;13.27;10.20;;;;;;;13.02;100.00;99737.78;5563282;31;34389;-86
2023/05/16 10:10:04;;;;;;;11.15;9.18;;;;;;;13.07;100.00;99736.50;5556582;32;34912;-86
2023/05/16 10:13:11;;;;;;;12.45;10.10;;;;;;;13.03;100.00;99740.31;5555479;32;34222;-87
2023/05/16 10:16:20;;;;;;;12.43;9.82;;;;;;;13.10;100.00;99745.22;5564001;32;33960;-85
2023/05/16 10:19:25;;;;;;;13.68;10.35;;;;;;;13.07;100.00;99733.84;5552308;32;33739;-86
2023/05/16 10:22:35;;;;;;;10.80;8.65;;;;;;;13.14;100.00;99726.28;5559459;32;34371;-86
2023/05/16 10:25:41;;;;;;;10.63;8.43;;;;;;;13.27;100.00;99734.22;5560934;32;34005;-91
2023/05/16 10:28:48;;;;;;;12.23;8.45;;;;;;;13.21;100.00;99729.34;5560667;32;33628;-86
2023/05/16 10:31:53;;;;;;;10.65;8.98;;;;;;;13.27;100.00;99725.41;5563349;31;34136;-85
2023/05/16 10:35:01;;;;;;;13.43;9.27;;;;;;;13.32;100.00;99723.22;5558668;32;34290;-86
2023/05/16 10:38:11;;;;;;;12.45;9.15;;;;;;;13.34;100.00;99716.00;5565089;31;34418;-87
2023/05/16 10:41:18;;;;;;;10.20;8.70;;;;;;;13.47;100.00;99711.50;5559342;31;33617;-85
2023/05/16 10:44:24;;;;;;;10.57;9.13;;;;;;;13.46;100.00;99707.16;5562752;32;34019;-86
2023/05/16 10:47:31;;;;;;;11.63;8.85;;;;;;;13.55;100.00;99708.31;5556945;31;34364;-85
2023/05/16 10:50:43;;;;;;;11.48;9.00;;;;;;;13.65;100.00;99705.81;5566959;31;33500;-86
2023/05/16 10:53:53;;;;;;;;;;;;;;;13.74;100.00;99704.28;5549742;31;33686;-86
2023/05/16 10:56:56;;;;;;;10.63;9.38;;;;;;;13.79;100.00;99706.59;5550670;32;34001;-85
2023/05/16 11:00:06;;;;;;;11.45;9.15;;;;;;;13.94;100.00;99697.44;5550849;32;34121;-87
2023/05/16 11:03:26;;;;;;;11.82;10.27;;;;;;;14.10;100.00;99682.97;5556551;32;34135;-88
2023/05/16 11:06:44;;;;;;;12.32;11.10;;;;;;;14.14;100.00;99674.59;5556494;32;33764;-88
2023/05/16 11:10:09;;;;;;;14.02;12.35;;;;;;;14.19;100.00;99666.28;5551929;31;33738;-88
2023/05/16 11:13:18;;;;;;;16.70;13.60;;;;;;;14.12;100.00;99655.22;5556135;31;33750;-87
2023/05/16 11:16:26;;;;;;;17.70;14.77;;;;;;;14.14;100.00;99663.94;5560773;32;33793;-90
2023/05/16 11:19:38;;;;;;;21.30;17.00;;;;;;;14.08;100.00;99661.75;5563262;31;33509;-91
2023/05/16 11:22:42;;;;;;;23.62;18.70;;;;;;;14.05;100.00;99653.13;5563480;32;33597;-87
2023/05/16 11:25:49;;;;;;;23.77;17.87;;;;;;;14.06;100.00;99638.81;5561165;32;33959;-87
2023/05/16 11:28:56;;;;;;;22.25;18.05;;;;;;;14.13;100.00;99627.56;5554862;32;34596;-87
2023/05/16 11:32:04;;;;;;;19.87;15.38;;;;;;;14.25;100.00;99620.47;5548083;32;33859;-88
2023/05/16 11:35:10;;;;;;;17.05;14.73;;;;;;;14.25;100.00;99615.13;5547946;32;34584;-88
2023/05/16 11:38:16;;;;;;;14.65;12.52;;;;;;;14.29;100.00;99619.22;5549858;32;33255;-88
2023/05/16 11:41:21;;;;;;;14.52;11.60;;;;;;;14.36;100.00;99627.63;5553144;31;34191;-86
2023/05/16 11:44:25;;;;;;;15.18;11.18;;;;;;;14.35;100.00;99630.41;5557359;32;33981;-85
2023/05/16 11:47:30;;;;;;;11.98;10.63;;;;;;;14.24;100.00;99636.56;5553661;32;34003;-86
2023/05/16 11:50:35;;;;;;;15.77;10.45;;;;;;;14.33;100.00;99633.19;5553088;32;34263;-88
2023/05/16 11:53:39;;;;;;;11.18;9.80;;;;;;;14.38;100.00;99628.34;5557259;32;33776;-87
2023/05/16 11:56:44;;;;;;;10.65;9.55;;;;;;;14.42;100.00;99624.47;5562380;32;33461;-88
2023/05/16 11:59:50;;;;;;;17.05;10.10;;;;;;;14.51;100.00;99606.03;5558203;31;33840;-86
2023/05/16 12:03:03;;;;;;;10.80;9.68;;;;;;;14.49;100.00;99605.31;5553862;32;34014;-86
2023/05/16 12:06:09;;;;;;;11.30;10.20;;;;;;;14.58;100.00;99604.56;5547245;32;34509;-86
2023/05/16 12:09:16;;;;;;;11.98;9.25;;;;;;;14.57;100.00;99602.06;5560457;31;34095;-86
2023/05/16 12:12:21;;;;;;;9.30;8.23;;;;;;;14.65;100.00;99602.28;5561504;31;34194;-86
2023/05/16 12:15:27;;;;;;;11.05;8.55;;;;;;;14.64;100.00;99584.56;5554684;32;33840;-85
2023/05/16 12:18:32;;;;;;;9.90;8.68;;;;;;;14.65;100.00;99584.47;5552144;32;33304;-86
2023/05/16 12:21:37;;;;;;;10.70;8.40;;;;;;;14.76;100.00;99582.75;5559314;32;34070;-86
2023/05/16 12:24:44;;;;;;;10.05;7.93;;;;;;;14.79;100.00;99590.53;5554621;31;33997;-86
2023/05/16 12:27:48;;;;;;;10.27;8.52;;;;;;;14.75;100.00;99597.94;5564348;32;33626;-87
2023/05/16 12:30:53;;;;;;;13.40;9.00;;;;;;;14.74;100.00;99593.56;5572991;32;34753;-86
2023/05/16 12:33:58;;;;;;;12.18;8.43;;;;;;;14.79;100.00;99596.72;5552141;32;34918;-86
2023/05/16 12:37:07;;;;;;;9.32;8.07;;;;;;;14.81;100.00;99601.94;5554270;32;33955;-91
2023/05/16 12:40:12;;;;;;;10.18;8.52;;;;;;;14.74;100.00;99609.56;5553835;32;33566;-92
2023/05/16 12:43:21;;;;;;;10.40;8.52;;;;;;;14.68;100.00;99612.69;5563892;32;33819;-88
2023/05/16 12:46:30;;;;;;;10.85;8.90;;;;;;;14.66;100.00;99604.84;5548077;32;34390;-88
2023/05/16 12:49:34;;;;;;;10.35;8.70;;;;;;;14.78;100.00;99592.34;5555475;32;34372;-87
2023/05/16 12:52:47;;;;;;;10.73;8.85;;;;;;;14.97;100.00;99590.03;5570444;32;34218;-87
2023/05/16 12:55:50;;;;;;;13.40;9.10;;;;;;;14.96;100.00;99597.19;5567729;32;33741;-87
2023/05/16 12:58:54;;;;;;;9.75;8.75;;;;;;;15.02;100.00;99599.38;5565123;32;33897;-87
2023/05/16 13:02:00;;;;;;;10.90;7.90;;;;;;;15.01;100.00;99603.00;5553429;32;33446;-86
2023/05/16 13:05:09;;;;;;;12.05;8.30;;;;;;;14.93;100.00;99590.28;5548025;32;34011;-88
2023/05/16 13:08:14;;;;;;;12.63;9.00;;;;;;;14.92;100.00;99588.56;5554903;32;33955;-86
2023/05/16 13:11:19;;;;;;;11.27;8.75;;;;;;;14.90;100.00;99597.69;5554486;32;34633;-85
2023/05/16 13:14:26;;;;;;;10.25;9.20;;;;;;;14.93;100.00;99586.75;5553234;32;34794;-86
2023/05/16 13:17:31;;;;;;;11.63;8.57;;;;;;;14.95;100.00;99585.66;5569209;32;33672;-87
2023/05/16 13:20:38;;;;;;;12.25;7.68;;;;;;;14.95;100.00;99580.31;5573979;32;33913;-86
2023/05/16 13:23:44;;;;;;;11.35;8.18;;;;;;;15.02;100.00;99569.97;5572866;32;34209;-86
2023/05/16 13:26:51;;;;;;;10.60;6.75;;;;;;;15.07;100.00;99558.91;5552600;32;34061;-84
2023/05/16 13:29:55;;;;;;;8.43;6.80;;;;;;;15.03;100.00;99561.00;5555215;32;33608;-85
2023/05/16 13:33:00;;;;;;;9.63;7.15;;;;;;;15.21;100.00;99550.63;5560203;32;34776;-86
2023/05/16 13:36:06;;;;;;;10.38;7.12;;;;;;;15.20;100.00;99546.25;5565159;32;34390;-85
2023/05/16 13:39:17;;;;;;;16.20;8.10;;;;;;;15.15;100.00;99544.94;5572452;32;33940;-85
2023/05/16 13:42:22;;;;;;;11.80;7.35;;;;;;;15.19;100.00;99533.88;5563947;32;33564;-84
2023/05/16 13:45:30;;;;;;;10.07;6.40;;;;;;;15.25;100.00;99516.50;5559861;32;33830;-85
2023/05/16 13:48:35;;;;;;;8.85;6.70;;;;;;;15.33;100.00;99506.00;5557752;32;34036;-84
2023/05/16 13:51:41;;;;;;;11.27;7.12;;;;;;;15.41;100.00;99505.37;5565560;32;33756;-84
2023/05/16 13:54:47;;;;;;;8.98;7.03;;;;;;;15.59;100.00;99502.94;5570667;32;34875;-89
2023/05/16 13:57:52;;;;;;;13.88;6.93;;;;;;;15.70;100.00;99515.41;5568204;32;33396;-91
2023/05/16 14:00:57;;;;;;;9.15;6.65;;;;;;;15.79;100.00;99510.25;5568871;32;33732;-86
2023/05/16 14:04:01;;;;;;;7.87;6.85;;;;;;;15.87;100.00;99503.28;5571858;32;34103;-85
2023/05/16 14:07:07;;;;;;;11.02;6.47;;;;;;;15.99;100.00;99506.75;5555332;32;33623;-85
2023/05/16 14:10:14;;;;;;;9.02;6.22;;;;;;;16.01;100.00;99504.78;5554139;32;34013;-85
2023/05/16 14:13:19;;;;;;;10.77;6.65;;;;;;;16.02;100.00;99500.28;5552729;32;33761;-86
2023/05/16 14:16:28;;;;;;;10.15;7.32;;;;;;;16.18;100.00;99494.44;5553093;32;33935;-85
2023/05/16 14:19:33;;;;;;;12.40;6.55;;;;;;;16.35;100.00;99497.47;5559188;32;34761;-87
2023/05/16 14:22:42;;;;;;;11.00;6.47;;;;;;;16.39;100.00;99491.69;5572216;32;34157;-86
2023/05/16 14:25:48;;;;;;;10.60;5.95;;;;;;;16.19;100.00;99496.13;5572335;32;33846;-85
2023/05/16 14:28:56;;;;;;;9.43;5.90;;;;;;;16.15;100.00;99495.53;5572430;32;34804;-85
2023/05/16 14:32:03;;;;;;;12.07;5.93;;;;;;;16.11;100.00;99493.28;5567163;32;33895;-86
2023/05/16 14:35:09;;;;;;;9.45;6.65;;;;;;;15.95;100.00;99497.31;5553149;32;34458;-85
2023/05/16 14:38:18;;;;;;;12.88;6.40;;;;;;;15.83;100.00;99498.31;5555046;32;34015;-85
2023/05/16 14:41:25;;;;;;;9.13;6.37;;;;;;;15.83;100.00;99506.31;5571477;32;34003;-85
2023/05/16 14:44:31;;;;;;;10.38;6.37;;;;;;;15.81;100.00;99509.16;5566830;32;34820;-85
2023/05/16 14:47:42;;;;;;;11.18;7.00;;;;;;;15.81;100.00;99513.63;5554107;32;34578;-86
2023/05/16 14:50:50;;;;;;;10.07;7.15;;;;;;;15.75;100.00;99512.34;5554727;32;33669;-86
2023/05/16 14:53:57;;;;;;;13.07;7.57;;;;;;;15.68;100.00;99509.34;5554900;32;35163;-85
2023/05/16 14:57:04;;;;;;;11.32;7.25;;;;;;;15.81;100.00;99524.34;5552898;32;33822;-85
2023/05/16 15:00:11;;;;;;;14.13;7.72;;;;;;;15.77;100.00;99515.72;5553492;32;34060;-85
2023/05/16 15:03:16;;;;;;;10.30;8.00;;;;;;;15.66;100.00;99513.97;5553749;32;34519;-85
2023/05/16 15:06:24;;;;;;;14.32;8.95;;;;;;;15.62;100.00;99504.53;5556666;32;33789;-85
2023/05/16 15:09:31;;;;;;;17.37;8.45;;;;;;;15.47;100.00;99509.34;5566326;32;33751;-90
2023/05/16 15:12:39;;;;;;;10.98;8.68;;;;;;;15.41;100.00;99515.19;5572540;32;34961;-90
2023/05/16 15:15:44;;;;;;;10.05;7.30;;;;;;;15.31;100.00;99512.44;5565352;32;34230;-85
2023/05/16 15:18:49;;;;;;;11.20;7.22;;;;;;;15.28;100.00;99508.22;5562785;32;34429;-85
2023/05/16 15:21:55;;;;;;;10.63;7.25;;;;;;;15.25;100.00;99510.28;5564332;32;34603;-85
2023/05/16 15:25:01;;;;;;;12.13;7.85;;;;;;;15.25;100.00;99511.16;5571212;32;33777;-84
2023/05/16 15:28:06;;;;;;;12.90;7.35;;;;;;;15.21;100.00;99520.37;5568240;32;33615;-83
2023/05/16 15:31:14;;;;;;;18.25;7.97;;;;;;;15.22;100.00;99520.28;5573293;32;34110;-83
